sensor_id;sensor_type;location;lat;lon;timestamp;temperature;humidity
5796;DHT22;2924;51.458;7.046;2024-01-06T00:01:21;5.50;99.90
5796;DHT22;2924;51.458;7.046;2024-01-06T00:03:47;5.60;99.90
5796;DHT22;2924;51.458;7.046;2024-01-06T00:06:15;5.60;99.90
5796;DHT22;2924;51.458;7.046;2024-01-06T00:08:41;5.60;99.90
5796;DHT22;2924;51.458;7.046;2024-01-06T00:11:07;5.60;99.90
5796;DHT22;2924;51.458;7.046;2024-01-06T00:13:32;5.50;99.90
5796;DHT22;2924;51.458;7.046;2024-01-06T00:15:58;5.50;99.90
5796;DHT22;2924;51.458;7.046;2024-01-06T00:18:24;5.50;99.90
5796;DHT22;2924;51.458;7.046;2024-01-06T00:20:50;5.50;99.90
5796;DHT22;2924;51.458;7.046;2024-01-06T00:23:15;5.50;99.90
5796;DHT22;2924;51.458;7.046;2024-01-06T00:25:41;5.50;99.90
5796;DHT22;2924;51.458;7.046;2024-01-06T00:28:06;5.50;99.90
5796;DHT22;2924;51.458;7.046;2024-01-06T00:30:32;5.50;99.90
5796;DHT22;2924;51.458;7.046;2024-01-06T00:32:57;5.50;99.90
5796;DHT22;2924;51.458;7.046;2024-01-06T00:35:23;5.50;99.90
5796;DHT22;2924;51.458;7.046;2024-01-06T00:37:49;5.50;99.90
5796;DHT22;2924;51.458;7.046;2024-01-06T00:40:14;5.50;99.90
5796;DHT22;2924;51.458;7.046;2024-01-06T00:42:40;5.50;99.90
5796;DHT22;2924;51.458;7.046;2024-01-06T00:45:06;5.50;99.90
5796;DHT22;2924;51.458;7.046;2024-01-06T00:47:32;5.50;99.90
5796;DHT22;2924;51.458;7.046;2024-01-06T00:49:57;5.50;99.90
5796;DHT22;2924;51.458;7.046;2024-01-06T00:52:23;5.60;99.90
5796;DHT22;2924;51.458;7.046;2024-01-06T00:54:49;5.60;99.90
5796;DHT22;2924;51.458;7.046;2024-01-06T00:57:14;5.60;99.90
5796;DHT22;2924;51.458;7.046;2024-01-06T00:59:40;5.60;99.90
5796;DHT22;2924;51.458;7.046;2024-01-06T01:02:05;5.60;99.90
5796;DHT22;2924;51.458;7.046;2024-01-06T01:04:31;5.60;99.90
5796;DHT22;2924;51.458;7.046;2024-01-06T01:06:56;5.60;99.90
5796;DHT22;2924;51.458;7.046;2024-01-06T01:09:22;5.50;99.90
5796;DHT22;2924;51.458;7.046;2024-01-06T01:11:47;5.50;99.90
5796;DHT22;2924;51.458;7.046;2024-01-06T01:14:13;5.60;99.90
5796;DHT22;2924;51.458;7.046;2024-01-06T01:16:39;5.60;99.90
5796;DHT22;2924;51.458;7.046;2024-01-06T01:19:04;5.60;99.90
5796;DHT22;2924;51.458;7.046;2024-01-06T01:21:30;5.60;99.90
5796;DHT22;2924;51.458;7.046;2024-01-06T01:23:56;5.60;99.90
5796;DHT22;2924;51.458;7.046;2024-01-06T01:26:21;5.50;99.90
5796;DHT22;2924;51.458;7.046;2024-01-06T01:28:47;5.50;99.90
5796;DHT22;2924;51.458;7.046;2024-01-06T01:31:12;5.50;99.90
5796;DHT22;2924;51.458;7.046;2024-01-06T01:33:38;5.50;99.90
5796;DHT22;2924;51.458;7.046;2024-01-06T01:36:04;5.60;99.90
5796;DHT22;2924;51.458;7.046;2024-01-06T01:38:30;5.50;99.90
5796;DHT22;2924;51.458;7.046;2024-01-06T01:40:55;5.50;99.90
5796;DHT22;2924;51.458;7.046;2024-01-06T01:43:21;5.50;99.90
5796;DHT22;2924;51.458;7.046;2024-01-06T01:45:50;5.50;99.90
5796;DHT22;2924;51.458;7.046;2024-01-06T01:48:19;5.40;99.90
5796;DHT22;2924;51.458;7.046;2024-01-06T01:50:45;5.40;99.90
5796;DHT22;2924;51.458;7.046;2024-01-06T01:53:12;5.40;99.90
5796;DHT22;2924;51.458;7.046;2024-01-06T01:55:38;5.50;99.90
5796;DHT22;2924;51.458;7.046;2024-01-06T01:58:05;5.50;99.90
5796;DHT22;2924;51.458;7.046;2024-01-06T02:00:31;5.40;99.90
5796;DHT22;2924;51.458;7.046;2024-01-06T02:02:58;5.50;99.90
5796;DHT22;2924;51.458;7.046;2024-01-06T02:05:25;5.50;99.90
5796;DHT22;2924;51.458;7.046;2024-01-06T02:07:50;5.50;99.90
5796;DHT22;2924;51.458;7.046;2024-01-06T02:10:17;5.40;99.90
5796;DHT22;2924;51.458;7.046;2024-01-06T02:12:43;5.40;99.90
5796;DHT22;2924;51.458;7.046;2024-01-06T02:15:08;5.40;99.90
5796;DHT22;2924;51.458;7.046;2024-01-06T02:17:34;5.40;99.90
5796;DHT22;2924;51.458;7.046;2024-01-06T02:20:00;5.30;99.90
5796;DHT22;2924;51.458;7.046;2024-01-06T02:22:25;5.30;99.90
5796;DHT22;2924;51.458;7.046;2024-01-06T02:24:51;5.40;99.90
5796;DHT22;2924;51.458;7.046;2024-01-06T02:27:17;5.30;99.90
5796;DHT22;2924;51.458;7.046;2024-01-06T02:29:43;5.40;99.90
5796;DHT22;2924;51.458;7.046;2024-01-06T02:32:09;5.30;99.90
5796;DHT22;2924;51.458;7.046;2024-01-06T02:34:34;5.40;99.90
5796;DHT22;2924;51.458;7.046;2024-01-06T02:37:00;5.30;99.90
5796;DHT22;2924;51.458;7.046;2024-01-06T02:39:25;5.40;99.90
5796;DHT22;2924;51.458;7.046;2024-01-06T02:41:51;5.40;99.90
5796;DHT22;2924;51.458;7.046;2024-01-06T02:44:17;5.40;99.90
5796;DHT22;2924;51.458;7.046;2024-01-06T02:46:42;5.40;99.90
5796;DHT22;2924;51.458;7.046;2024-01-06T02:49:08;5.40;99.90
5796;DHT22;2924;51.458;7.046;2024-01-06T02:51:34;5.40;99.90
5796;DHT22;2924;51.458;7.046;2024-01-06T02:53:59;5.40;99.90
5796;DHT22;2924;51.458;7.046;2024-01-06T02:56:25;5.50;99.90
5796;DHT22;2924;51.458;7.046;2024-01-06T02:58:50;5.50;99.90
5796;DHT22;2924;51.458;7.046;2024-01-06T03:01:17;5.50;99.90
5796;DHT22;2924;51.458;7.046;2024-01-06T03:03:42;5.40;99.90
5796;DHT22;2924;51.458;7.046;2024-01-06T03:06:08;5.50;99.90
5796;DHT22;2924;51.458;7.046;2024-01-06T03:08:34;5.50;99.90
5796;DHT22;2924;51.458;7.046;2024-01-06T03:11:00;5.50;99.90
5796;DHT22;2924;51.458;7.046;2024-01-06T03:13:25;5.50;99.90
5796;DHT22;2924;51.458;7.046;2024-01-06T03:15:51;5.50;99.90
5796;DHT22;2924;51.458;7.046;2024-01-06T03:18:16;5.40;99.90
5796;DHT22;2924;51.458;7.046;2024-01-06T03:20:42;5.40;99.90
5796;DHT22;2924;51.458;7.046;2024-01-06T03:23:08;5.30;99.90
5796;DHT22;2924;51.458;7.046;2024-01-06T03:25:33;5.30;99.90
5796;DHT22;2924;51.458;7.046;2024-01-06T03:27:59;5.20;99.90
5796;DHT22;2924;51.458;7.046;2024-01-06T03:30:24;5.20;99.90
5796;DHT22;2924;51.458;7.046;2024-01-06T03:32:50;5.20;99.90
5796;DHT22;2924;51.458;7.046;2024-01-06T03:35:15;5.20;99.90
5796;DHT22;2924;51.458;7.046;2024-01-06T03:37:41;5.10;99.90
5796;DHT22;2924;51.458;7.046;2024-01-06T03:40:07;5.00;99.90
5796;DHT22;2924;51.458;7.046;2024-01-06T03:42:33;4.90;99.90
5796;DHT22;2924;51.458;7.046;2024-01-06T03:44:58;4.80;99.90
5796;DHT22;2924;51.458;7.046;2024-01-06T03:47:24;4.80;99.90
5796;DHT22;2924;51.458;7.046;2024-01-06T03:49:49;4.80;99.90
5796;DHT22;2924;51.458;7.046;2024-01-06T03:52:15;4.70;99.90
5796;DHT22;2924;51.458;7.046;2024-01-06T03:54:40;4.70;99.90
5796;DHT22;2924;51.458;7.046;2024-01-06T03:57:06;4.60;99.90
5796;DHT22;2924;51.458;7.046;2024-01-06T03:59:32;4.70;99.90
5796;DHT22;2924;51.458;7.046;2024-01-06T04:01:57;4.60;99.90
5796;DHT22;2924;51.458;7.046;2024-01-06T04:04:23;4.60;99.90
5796;DHT22;2924;51.458;7.046;2024-01-06T04:06:48;4.60;99.90
5796;DHT22;2924;51.458;7.046;2024-01-06T04:09:14;4.60;99.90
5796;DHT22;2924;51.458;7.046;2024-01-06T04:11:39;4.60;99.90
5796;DHT22;2924;51.458;7.046;2024-01-06T04:14:05;4.50;99.90
5796;DHT22;2924;51.458;7.046;2024-01-06T04:16:30;4.50;99.90
5796;DHT22;2924;51.458;7.046;2024-01-06T04:18:56;4.30;99.90
5796;DHT22;2924;51.458;7.046;2024-01-06T04:21:21;4.30;99.90
5796;DHT22;2924;51.458;7.046;2024-01-06T04:23:47;4.30;99.90
5796;DHT22;2924;51.458;7.046;2024-01-06T04:26:13;4.20;99.90
5796;DHT22;2924;51.458;7.046;2024-01-06T04:28:38;4.20;99.90
5796;DHT22;2924;51.458;7.046;2024-01-06T04:31:04;4.20;99.90
5796;DHT22;2924;51.458;7.046;2024-01-06T04:33:29;4.10;99.90
5796;DHT22;2924;51.458;7.046;2024-01-06T04:35:56;4.10;99.90
5796;DHT22;2924;51.458;7.046;2024-01-06T04:38:23;4.10;99.90
5796;DHT22;2924;51.458;7.046;2024-01-06T04:40:48;4.10;99.90
5796;DHT22;2924;51.458;7.046;2024-01-06T04:43:14;4.10;99.90
5796;DHT22;2924;51.458;7.046;2024-01-06T04:45:39;4.10;99.90
5796;DHT22;2924;51.458;7.046;2024-01-06T04:48:05;4.10;99.90
5796;DHT22;2924;51.458;7.046;2024-01-06T04:50:31;4.00;99.90
5796;DHT22;2924;51.458;7.046;2024-01-06T04:52:57;4.00;99.90
5796;DHT22;2924;51.458;7.046;2024-01-06T04:55:22;4.00;99.90
5796;DHT22;2924;51.458;7.046;2024-01-06T04:57:49;4.00;99.90
5796;DHT22;2924;51.458;7.046;2024-01-06T05:00:15;4.00;99.90
5796;DHT22;2924;51.458;7.046;2024-01-06T05:02:41;4.00;99.90
5796;DHT22;2924;51.458;7.046;2024-01-06T05:05:06;3.90;99.90
5796;DHT22;2924;51.458;7.046;2024-01-06T05:07:32;4.00;99.90
5796;DHT22;2924;51.458;7.046;2024-01-06T05:09:58;3.90;99.90
5796;DHT22;2924;51.458;7.046;2024-01-06T05:12:23;4.00;99.90
5796;DHT22;2924;51.458;7.046;2024-01-06T05:14:49;3.90;99.90
5796;DHT22;2924;51.458;7.046;2024-01-06T05:17:14;3.90;99.90
5796;DHT22;2924;51.458;7.046;2024-01-06T05:19:40;3.90;99.90
5796;DHT22;2924;51.458;7.046;2024-01-06T05:22:06;3.90;99.90
5796;DHT22;2924;51.458;7.046;2024-01-06T05:24:32;3.90;99.90
5796;DHT22;2924;51.458;7.046;2024-01-06T05:26:57;3.90;99.90
5796;DHT22;2924;51.458;7.046;2024-01-06T05:29:23;3.90;99.90
5796;DHT22;2924;51.458;7.046;2024-01-06T05:31:50;3.90;99.90
5796;DHT22;2924;51.458;7.046;2024-01-06T05:34:15;3.90;99.90
5796;DHT22;2924;51.458;7.046;2024-01-06T05:36:41;3.90;99.90
5796;DHT22;2924;51.458;7.046;2024-01-06T05:39:06;3.90;99.90
5796;DHT22;2924;51.458;7.046;2024-01-06T05:41:39;3.80;99.90
5796;DHT22;2924;51.458;7.046;2024-01-06T05:44:05;3.90;99.90
5796;DHT22;2924;51.458;7.046;2024-01-06T05:46:31;3.90;99.90
5796;DHT22;2924;51.458;7.046;2024-01-06T05:48:56;3.90;99.90
5796;DHT22;2924;51.458;7.046;2024-01-06T05:51:22;3.90;99.90
5796;DHT22;2924;51.458;7.046;2024-01-06T05:53:48;3.90;99.90
5796;DHT22;2924;51.458;7.046;2024-01-06T05:56:26;3.90;99.90
5796;DHT22;2924;51.458;7.046;2024-01-06T05:58:52;3.90;99.90
5796;DHT22;2924;51.458;7.046;2024-01-06T06:01:18;3.90;99.90
5796;DHT22;2924;51.458;7.046;2024-01-06T06:03:44;3.90;99.90
5796;DHT22;2924;51.458;7.046;2024-01-06T06:06:10;3.90;99.90
5796;DHT22;2924;51.458;7.046;2024-01-06T06:08:36;3.90;99.90
5796;DHT22;2924;51.458;7.046;2024-01-06T06:11:01;3.90;99.90
5796;DHT22;2924;51.458;7.046;2024-01-06T06:13:30;3.80;99.90
5796;DHT22;2924;51.458;7.046;2024-01-06T06:15:55;3.80;99.90
5796;DHT22;2924;51.458;7.046;2024-01-06T06:18:21;3.80;99.90
5796;DHT22;2924;51.458;7.046;2024-01-06T06:20:46;3.80;99.90
5796;DHT22;2924;51.458;7.046;2024-01-06T06:23:13;3.80;99.90
5796;DHT22;2924;51.458;7.046;2024-01-06T06:25:39;3.80;99.90
5796;DHT22;2924;51.458;7.046;2024-01-06T06:28:04;3.90;99.90
5796;DHT22;2924;51.458;7.046;2024-01-06T06:30:30;3.90;99.90
5796;DHT22;2924;51.458;7.046;2024-01-06T06:32:55;3.90;99.90
5796;DHT22;2924;51.458;7.046;2024-01-06T06:35:22;3.80;99.90
5796;DHT22;2924;51.458;7.046;2024-01-06T06:37:48;3.80;99.90
5796;DHT22;2924;51.458;7.046;2024-01-06T06:40:14;3.80;99.90
5796;DHT22;2924;51.458;7.046;2024-01-06T06:42:40;3.80;99.90
5796;DHT22;2924;51.458;7.046;2024-01-06T06:45:06;3.80;99.90
5796;DHT22;2924;51.458;7.046;2024-01-06T06:47:31;3.90;99.90
5796;DHT22;2924;51.458;7.046;2024-01-06T06:49:57;3.90;99.90
5796;DHT22;2924;51.458;7.046;2024-01-06T06:52:22;3.90;99.90
5796;DHT22;2924;51.458;7.046;2024-01-06T06:54:48;3.90;99.90
5796;DHT22;2924;51.458;7.046;2024-01-06T06:57:14;3.90;99.90
5796;DHT22;2924;51.458;7.046;2024-01-06T06:59:40;3.80;99.90
5796;DHT22;2924;51.458;7.046;2024-01-06T07:02:06;3.80;99.90
5796;DHT22;2924;51.458;7.046;2024-01-06T07:04:31;3.80;99.90
5796;DHT22;2924;51.458;7.046;2024-01-06T07:06:57;3.80;99.90
5796;DHT22;2924;51.458;7.046;2024-01-06T07:09:22;3.80;99.90
5796;DHT22;2924;51.458;7.046;2024-01-06T07:11:51;3.80;99.90
5796;DHT22;2924;51.458;7.046;2024-01-06T07:14:17;3.80;99.90
5796;DHT22;2924;51.458;7.046;2024-01-06T07:16:42;3.70;99.90
5796;DHT22;2924;51.458;7.046;2024-01-06T07:19:08;3.70;99.90
5796;DHT22;2924;51.458;7.046;2024-01-06T07:21:33;3.80;99.90
5796;DHT22;2924;51.458;7.046;2024-01-06T07:24:00;3.70;99.90
5796;DHT22;2924;51.458;7.046;2024-01-06T07:26:26;3.70;99.90
5796;DHT22;2924;51.458;7.046;2024-01-06T07:28:52;3.70;99.90
5796;DHT22;2924;51.458;7.046;2024-01-06T07:31:17;3.70;99.90
5796;DHT22;2924;51.458;7.046;2024-01-06T07:33:43;3.60;99.90
5796;DHT22;2924;51.458;7.046;2024-01-06T07:36:09;3.60;99.90
5796;DHT22;2924;51.458;7.046;2024-01-06T07:38:34;3.60;99.90
5796;DHT22;2924;51.458;7.046;2024-01-06T07:41:00;3.50;99.90
5796;DHT22;2924;51.458;7.046;2024-01-06T07:43:25;3.50;99.90
5796;DHT22;2924;51.458;7.046;2024-01-06T07:45:51;3.50;99.90
5796;DHT22;2924;51.458;7.046;2024-01-06T07:48:17;3.40;99.90
5796;DHT22;2924;51.458;7.046;2024-01-06T07:50:42;3.40;99.90
5796;DHT22;2924;51.458;7.046;2024-01-06T07:53:08;3.40;99.90
5796;DHT22;2924;51.458;7.046;2024-01-06T07:55:34;3.40;99.90
5796;DHT22;2924;51.458;7.046;2024-01-06T07:57:59;3.40;99.90
5796;DHT22;2924;51.458;7.046;2024-01-06T08:00:25;3.40;99.90
5796;DHT22;2924;51.458;7.046;2024-01-06T08:02:50;3.40;99.90
5796;DHT22;2924;51.458;7.046;2024-01-06T08:05:16;3.40;99.90
5796;DHT22;2924;51.458;7.046;2024-01-06T08:07:42;3.40;99.90
5796;DHT22;2924;51.458;7.046;2024-01-06T08:10:08;3.30;99.90
5796;DHT22;2924;51.458;7.046;2024-01-06T08:12:34;3.30;99.90
5796;DHT22;2924;51.458;7.046;2024-01-06T08:15:00;3.30;99.90
5796;DHT22;2924;51.458;7.046;2024-01-06T08:17:25;3.30;99.90
5796;DHT22;2924;51.458;7.046;2024-01-06T08:19:51;3.30;99.90
5796;DHT22;2924;51.458;7.046;2024-01-06T08:22:16;3.30;99.90
5796;DHT22;2924;51.458;7.046;2024-01-06T08:24:42;3.30;99.90
5796;DHT22;2924;51.458;7.046;2024-01-06T08:27:07;3.30;99.90
5796;DHT22;2924;51.458;7.046;2024-01-06T08:29:33;3.30;99.90
5796;DHT22;2924;51.458;7.046;2024-01-06T08:31:59;3.30;99.90
5796;DHT22;2924;51.458;7.046;2024-01-06T08:34:25;3.30;99.90
5796;DHT22;2924;51.458;7.046;2024-01-06T08:36:50;3.30;99.90
5796;DHT22;2924;51.458;7.046;2024-01-06T08:39:16;3.30;99.90
5796;DHT22;2924;51.458;7.046;2024-01-06T08:41:42;3.30;99.90
5796;DHT22;2924;51.458;7.046;2024-01-06T08:44:07;3.40;99.90
5796;DHT22;2924;51.458;7.046;2024-01-06T08:46:33;3.30;99.90
5796;DHT22;2924;51.458;7.046;2024-01-06T08:48:58;3.40;99.90
5796;DHT22;2924;51.458;7.046;2024-01-06T08:51:25;3.40;99.90
5796;DHT22;2924;51.458;7.046;2024-01-06T08:53:52;3.30;99.90
5796;DHT22;2924;51.458;7.046;2024-01-06T08:56:17;3.30;99.90
5796;DHT22;2924;51.458;7.046;2024-01-06T08:58:43;3.30;99.90
5796;DHT22;2924;51.458;7.046;2024-01-06T09:01:09;3.30;99.90
5796;DHT22;2924;51.458;7.046;2024-01-06T09:03:34;3.30;99.90
5796;DHT22;2924;51.458;7.046;2024-01-06T09:06:00;3.30;99.90
5796;DHT22;2924;51.458;7.046;2024-01-06T09:08:25;3.40;99.90
5796;DHT22;2924;51.458;7.046;2024-01-06T09:10:51;3.40;99.90
5796;DHT22;2924;51.458;7.046;2024-01-06T09:13:17;3.50;99.90
5796;DHT22;2924;51.458;7.046;2024-01-06T09:15:43;3.50;99.90
5796;DHT22;2924;51.458;7.046;2024-01-06T09:18:09;3.50;99.90
5796;DHT22;2924;51.458;7.046;2024-01-06T09:20:35;3.50;99.90
5796;DHT22;2924;51.458;7.046;2024-01-06T09:23:00;3.40;99.90
5796;DHT22;2924;51.458;7.046;2024-01-06T09:25:26;3.40;99.90
5796;DHT22;2924;51.458;7.046;2024-01-06T09:27:52;3.40;99.90
5796;DHT22;2924;51.458;7.046;2024-01-06T09:30:18;3.40;99.90
5796;DHT22;2924;51.458;7.046;2024-01-06T09:32:44;3.40;99.90
5796;DHT22;2924;51.458;7.046;2024-01-06T09:35:10;3.40;99.90
5796;DHT22;2924;51.458;7.046;2024-01-06T09:37:35;3.30;99.90
5796;DHT22;2924;51.458;7.046;2024-01-06T09:40:01;3.40;99.90
5796;DHT22;2924;51.458;7.046;2024-01-06T09:42:26;3.30;99.90
5796;DHT22;2924;51.458;7.046;2024-01-06T09:44:52;3.40;99.90
5796;DHT22;2924;51.458;7.046;2024-01-06T09:47:18;3.30;99.90
5796;DHT22;2924;51.458;7.046;2024-01-06T09:49:49;3.30;99.90
5796;DHT22;2924;51.458;7.046;2024-01-06T09:52:21;3.20;99.90
5796;DHT22;2924;51.458;7.046;2024-01-06T09:54:51;3.20;99.90
5796;DHT22;2924;51.458;7.046;2024-01-06T09:57:17;3.20;99.90
5796;DHT22;2924;51.458;7.046;2024-01-06T09:59:46;3.10;99.90
5796;DHT22;2924;51.458;7.046;2024-01-06T10:02:16;3.10;99.90
5796;DHT22;2924;51.458;7.046;2024-01-06T10:04:45;3.20;99.90
5796;DHT22;2924;51.458;7.046;2024-01-06T10:07:11;3.20;99.90
5796;DHT22;2924;51.458;7.046;2024-01-06T10:09:40;3.20;99.90
5796;DHT22;2924;51.458;7.046;2024-01-06T10:12:06;3.20;99.90
5796;DHT22;2924;51.458;7.046;2024-01-06T10:14:31;3.20;99.90
5796;DHT22;2924;51.458;7.046;2024-01-06T10:16:57;3.20;99.90
5796;DHT22;2924;51.458;7.046;2024-01-06T10:19:23;3.30;99.90
5796;DHT22;2924;51.458;7.046;2024-01-06T10:21:49;3.30;99.90
5796;DHT22;2924;51.458;7.046;2024-01-06T10:24:14;3.30;99.90
5796;DHT22;2924;51.458;7.046;2024-01-06T10:26:42;3.20;99.90
5796;DHT22;2924;51.458;7.046;2024-01-06T10:29:08;3.30;99.90
5796;DHT22;2924;51.458;7.046;2024-01-06T10:31:33;3.20;99.90
5796;DHT22;2924;51.458;7.046;2024-01-06T10:34:00;3.20;99.90
5796;DHT22;2924;51.458;7.046;2024-01-06T10:36:26;3.10;99.90
5796;DHT22;2924;51.458;7.046;2024-01-06T10:38:52;3.10;99.90
5796;DHT22;2924;51.458;7.046;2024-01-06T10:41:19;3.00;99.90
5796;DHT22;2924;51.458;7.046;2024-01-06T10:43:46;2.90;99.90
5796;DHT22;2924;51.458;7.046;2024-01-06T10:46:13;3.00;99.90
5796;DHT22;2924;51.458;7.046;2024-01-06T10:48:41;2.90;99.90
5796;DHT22;2924;51.458;7.046;2024-01-06T10:51:12;2.90;99.90
5796;DHT22;2924;51.458;7.046;2024-01-06T10:53:40;3.00;99.90
5796;DHT22;2924;51.458;7.046;2024-01-06T10:56:07;2.90;99.90
5796;DHT22;2924;51.458;7.046;2024-01-06T10:58:34;2.90;99.90
5796;DHT22;2924;51.458;7.046;2024-01-06T11:01:03;2.90;99.90
5796;DHT22;2924;51.458;7.046;2024-01-06T11:03:29;2.90;99.90
5796;DHT22;2924;51.458;7.046;2024-01-06T11:05:56;2.80;99.90
5796;DHT22;2924;51.458;7.046;2024-01-06T11:08:22;2.80;99.90
5796;DHT22;2924;51.458;7.046;2024-01-06T11:10:49;2.80;99.90
5796;DHT22;2924;51.458;7.046;2024-01-06T11:13:20;2.80;99.90
5796;DHT22;2924;51.458;7.046;2024-01-06T11:15:50;2.90;99.90
5796;DHT22;2924;51.458;7.046;2024-01-06T11:18:36;2.90;99.90
5796;DHT22;2924;51.458;7.046;2024-01-06T11:21:19;2.90;99.90
5796;DHT22;2924;51.458;7.046;2024-01-06T11:24:18;2.90;99.90
5796;DHT22;2924;51.458;7.046;2024-01-06T11:26:50;2.90;99.90
5796;DHT22;2924;51.458;7.046;2024-01-06T11:29:17;2.90;99.90
5796;DHT22;2924;51.458;7.046;2024-01-06T11:31:43;2.90;99.90
5796;DHT22;2924;51.458;7.046;2024-01-06T11:34:18;2.90;99.90
5796;DHT22;2924;51.458;7.046;2024-01-06T11:36:48;2.90;99.90
5796;DHT22;2924;51.458;7.046;2024-01-06T11:39:36;2.90;99.90
5796;DHT22;2924;51.458;7.046;2024-01-06T11:42:04;2.80;99.90
5796;DHT22;2924;51.458;7.046;2024-01-06T11:44:33;2.70;99.90
5796;DHT22;2924;51.458;7.046;2024-01-06T11:46:59;2.80;99.90
5796;DHT22;2924;51.458;7.046;2024-01-06T11:49:27;2.80;99.90
5796;DHT22;2924;51.458;7.046;2024-01-06T11:51:53;2.80;99.90
5796;DHT22;2924;51.458;7.046;2024-01-06T11:54:21;2.80;99.90
5796;DHT22;2924;51.458;7.046;2024-01-06T11:56:46;2.80;99.90
5796;DHT22;2924;51.458;7.046;2024-01-06T11:59:12;2.80;99.90
5796;DHT22;2924;51.458;7.046;2024-01-06T12:01:38;2.70;99.90
5796;DHT22;2924;51.458;7.046;2024-01-06T12:04:05;2.80;99.90
5796;DHT22;2924;51.458;7.046;2024-01-06T12:06:34;2.70;99.90
5796;DHT22;2924;51.458;7.046;2024-01-06T12:09:06;2.70;99.90
5796;DHT22;2924;51.458;7.046;2024-01-06T12:11:32;2.60;99.90
5796;DHT22;2924;51.458;7.046;2024-01-06T12:13:58;2.50;99.90
5796;DHT22;2924;51.458;7.046;2024-01-06T12:16:24;2.50;99.90
5796;DHT22;2924;51.458;7.046;2024-01-06T12:18:53;2.40;99.90
5796;DHT22;2924;51.458;7.046;2024-01-06T12:21:22;2.40;99.90
5796;DHT22;2924;51.458;7.046;2024-01-06T12:23:47;2.30;99.90
5796;DHT22;2924;51.458;7.046;2024-01-06T12:26:13;2.40;99.90
5796;DHT22;2924;51.458;7.046;2024-01-06T12:28:39;2.40;99.90
5796;DHT22;2924;51.458;7.046;2024-01-06T12:31:08;2.40;99.90
5796;DHT22;2924;51.458;7.046;2024-01-06T12:33:35;2.40;99.90
5796;DHT22;2924;51.458;7.046;2024-01-06T12:36:03;2.40;99.90
5796;DHT22;2924;51.458;7.046;2024-01-06T12:38:29;2.40;99.90
5796;DHT22;2924;51.458;7.046;2024-01-06T12:40:56;2.40;99.90
5796;DHT22;2924;51.458;7.046;2024-01-06T12:43:21;2.40;99.90
5796;DHT22;2924;51.458;7.046;2024-01-06T12:45:47;2.40;99.90
5796;DHT22;2924;51.458;7.046;2024-01-06T12:48:12;2.40;99.90
5796;DHT22;2924;51.458;7.046;2024-01-06T12:50:38;2.30;99.90
5796;DHT22;2924;51.458;7.046;2024-01-06T12:53:04;2.40;99.90
5796;DHT22;2924;51.458;7.046;2024-01-06T12:55:29;2.40;99.90
5796;DHT22;2924;51.458;7.046;2024-01-06T12:57:55;2.40;99.90
5796;DHT22;2924;51.458;7.046;2024-01-06T13:00:21;2.30;99.90
5796;DHT22;2924;51.458;7.046;2024-01-06T13:02:46;2.30;99.90
5796;DHT22;2924;51.458;7.046;2024-01-06T13:05:12;2.30;99.90
5796;DHT22;2924;51.458;7.046;2024-01-06T13:07:38;2.30;99.90
5796;DHT22;2924;51.458;7.046;2024-01-06T13:10:05;2.20;99.90
5796;DHT22;2924;51.458;7.046;2024-01-06T13:12:30;2.20;99.90
5796;DHT22;2924;51.458;7.046;2024-01-06T13:14:56;2.20;99.90
5796;DHT22;2924;51.458;7.046;2024-01-06T13:17:22;2.10;99.90
5796;DHT22;2924;51.458;7.046;2024-01-06T13:19:47;2.10;99.90
5796;DHT22;2924;51.458;7.046;2024-01-06T13:22:13;2.10;99.90
5796;DHT22;2924;51.458;7.046;2024-01-06T13:24:40;2.10;99.90
5796;DHT22;2924;51.458;7.046;2024-01-06T13:27:06;2.10;99.90
5796;DHT22;2924;51.458;7.046;2024-01-06T13:29:32;2.10;99.90
5796;DHT22;2924;51.458;7.046;2024-01-06T13:31:57;2.00;99.90
5796;DHT22;2924;51.458;7.046;2024-01-06T13:34:25;2.00;99.90
5796;DHT22;2924;51.458;7.046;2024-01-06T13:36:50;2.00;99.90
5796;DHT22;2924;51.458;7.046;2024-01-06T13:39:16;1.90;99.90
5796;DHT22;2924;51.458;7.046;2024-01-06T13:41:48;1.90;99.90
5796;DHT22;2924;51.458;7.046;2024-01-06T13:44:14;1.90;99.90
5796;DHT22;2924;51.458;7.046;2024-01-06T13:46:39;1.90;99.90
5796;DHT22;2924;51.458;7.046;2024-01-06T13:49:11;1.90;99.90
5796;DHT22;2924;51.458;7.046;2024-01-06T13:51:38;2.00;99.90
5796;DHT22;2924;51.458;7.046;2024-01-06T13:54:03;2.00;99.90
5796;DHT22;2924;51.458;7.046;2024-01-06T13:56:29;2.00;99.90
5796;DHT22;2924;51.458;7.046;2024-01-06T13:58:54;1.90;99.90
5796;DHT22;2924;51.458;7.046;2024-01-06T14:01:20;1.80;99.90
5796;DHT22;2924;51.458;7.046;2024-01-06T14:03:46;1.80;99.90
5796;DHT22;2924;51.458;7.046;2024-01-06T14:06:11;1.80;99.90
5796;DHT22;2924;51.458;7.046;2024-01-06T14:08:37;1.80;99.90
5796;DHT22;2924;51.458;7.046;2024-01-06T14:11:03;1.80;99.90
5796;DHT22;2924;51.458;7.046;2024-01-06T14:13:28;1.70;99.90
5796;DHT22;2924;51.458;7.046;2024-01-06T14:15:54;1.70;99.90
5796;DHT22;2924;51.458;7.046;2024-01-06T14:18:20;1.70;99.90
5796;DHT22;2924;51.458;7.046;2024-01-06T14:20:45;1.70;99.90
5796;DHT22;2924;51.458;7.046;2024-01-06T14:23:11;1.70;99.90
5796;DHT22;2924;51.458;7.046;2024-01-06T14:25:37;1.60;99.90
5796;DHT22;2924;51.458;7.046;2024-01-06T14:28:02;1.60;99.90
5796;DHT22;2924;51.458;7.046;2024-01-06T14:30:28;1.60;99.90
5796;DHT22;2924;51.458;7.046;2024-01-06T14:32:54;1.60;99.90
5796;DHT22;2924;51.458;7.046;2024-01-06T14:35:20;1.60;99.90
5796;DHT22;2924;51.458;7.046;2024-01-06T14:37:46;1.60;99.90
5796;DHT22;2924;51.458;7.046;2024-01-06T14:40:12;1.60;99.90
5796;DHT22;2924;51.458;7.046;2024-01-06T14:42:37;1.50;99.90
5796;DHT22;2924;51.458;7.046;2024-01-06T14:45:04;1.50;99.90
5796;DHT22;2924;51.458;7.046;2024-01-06T14:47:30;1.50;99.90
5796;DHT22;2924;51.458;7.046;2024-01-06T14:49:57;1.50;99.90
5796;DHT22;2924;51.458;7.046;2024-01-06T14:52:23;1.50;99.90
5796;DHT22;2924;51.458;7.046;2024-01-06T14:54:48;1.40;99.90
5796;DHT22;2924;51.458;7.046;2024-01-06T14:57:15;1.50;99.90
5796;DHT22;2924;51.458;7.046;2024-01-06T14:59:40;1.40;99.90
5796;DHT22;2924;51.458;7.046;2024-01-06T15:02:06;1.50;99.90
5796;DHT22;2924;51.458;7.046;2024-01-06T15:04:32;1.50;99.90
5796;DHT22;2924;51.458;7.046;2024-01-06T15:06:58;1.50;99.90
5796;DHT22;2924;51.458;7.046;2024-01-06T15:09:24;1.50;99.90
5796;DHT22;2924;51.458;7.046;2024-01-06T15:11:52;1.40;99.90
5796;DHT22;2924;51.458;7.046;2024-01-06T15:14:17;1.50;99.90
5796;DHT22;2924;51.458;7.046;2024-01-06T15:16:43;1.40;99.90
5796;DHT22;2924;51.458;7.046;2024-01-06T15:19:08;1.40;99.90
5796;DHT22;2924;51.458;7.046;2024-01-06T15:21:34;1.40;99.90
5796;DHT22;2924;51.458;7.046;2024-01-06T15:24:02;1.40;99.90
5796;DHT22;2924;51.458;7.046;2024-01-06T15:26:28;1.40;99.90
5796;DHT22;2924;51.458;7.046;2024-01-06T15:28:53;1.50;99.90
5796;DHT22;2924;51.458;7.046;2024-01-06T15:31:21;1.50;99.90
5796;DHT22;2924;51.458;7.046;2024-01-06T15:33:47;1.40;99.90
5796;DHT22;2924;51.458;7.046;2024-01-06T15:36:13;1.40;99.90
5796;DHT22;2924;51.458;7.046;2024-01-06T15:38:39;1.40;99.90
5796;DHT22;2924;51.458;7.046;2024-01-06T15:41:06;1.30;99.90
5796;DHT22;2924;51.458;7.046;2024-01-06T15:43:32;1.30;99.90
5796;DHT22;2924;51.458;7.046;2024-01-06T15:45:58;1.30;99.90
5796;DHT22;2924;51.458;7.046;2024-01-06T15:48:24;1.30;99.90
5796;DHT22;2924;51.458;7.046;2024-01-06T15:50:49;1.30;99.90
5796;DHT22;2924;51.458;7.046;2024-01-06T15:53:15;1.30;99.90
5796;DHT22;2924;51.458;7.046;2024-01-06T15:55:42;1.30;99.90
5796;DHT22;2924;51.458;7.046;2024-01-06T15:58:08;1.30;99.90
5796;DHT22;2924;51.458;7.046;2024-01-06T16:00:33;1.30;99.90
5796;DHT22;2924;51.458;7.046;2024-01-06T16:03:00;1.30;99.90
5796;DHT22;2924;51.458;7.046;2024-01-06T16:05:25;1.30;99.90
5796;DHT22;2924;51.458;7.046;2024-01-06T16:07:51;1.30;99.90
5796;DHT22;2924;51.458;7.046;2024-01-06T16:10:20;1.30;99.90